Meteo Giornale » Osservazioni meteo Angola » Lubango
ore: 08:00 - Osservazioni Meteo Lubango
Lat. 14° 56' S Lon. 13° 35' E Alt. 1761 metri s.l.m.
22 °C
Nuvoloso
Temp. 24 Ore
15 °C
29 °C
Sud
7.4 Km/h
Dew point 2 °C
Umidità 26 %
Visibilità 10 Km
Il sole sorge alle ore 06:10
Il sole tramonta alle ore 18:00
| Data e Ora | Cielo e Fenomeni | T °C | DP °C | Um. % | Pres. hPa | Vis. km | Vento km/h | |
|---|---|---|---|---|---|---|---|---|
| Oggi h: 08:00 | Nuvoloso | 22 | 2 | 26 | 1027 | 10 | S 7.4 | |
| Oggi h: 07:00 | Sereno | 19 | 4 | 37 | 1026 | 11 | N 5.5 | |
| Oggi h: 06:00 | Sereno | 18 | 2 | 34 | 1025 | 11 | O/SO 9.3 | |
| Oggi h: 05:00 | Sereno | 17 | 4 | 41 | 1025 | 10 | N 0 | |
| Oggi h: 04:00 | Sereno | 16 | 3 | 41 | 1024 | 10 | N 5.5 | |
| Oggi h: 03:00 | Sereno | 15 | 3 | 44 | 1024 | 10 | SO 11.1 | |
| Oggi h: 02:00 | Sereno | 17 | 3 | 39 | 1024 | 10 | N 3.7 | |
| Oggi h: 01:00 | Sereno | 17 | 4 | 41 | 1025 | 10 | SO 9.3 | |
| Oggi h: 00:00 | Sereno | 16 | 7 | 55 | 1025 | 0 | O 7.4 | |
| Ieri h: 23:00 | Sereno | 16 | 8 | 58 | 1026 | 0 | N 5.5 | |
| Ieri h: 22:00 | Sereno | 18 | 8 | 51 | 1026 | 0 | N 3.7 | |
| Ieri h: 21:00 | Sereno | 17 | 8 | 55 | 1025 | 0 | NO 7.4 | |
| Ieri h: 20:00 | Sereno | 19 | 8 | 48 | 1024 | 0 | N 5.5 | |
| Ieri h: 19:00 | Sereno | 20 | 9 | 49 | 1024 | 0 | N 0 | |
| Ieri h: 18:00 | Sereno | 22 | 9 | 43 | 1023 | 0 | N/NO 7.4 | |
| Ieri h: 17:00 | Sereno | 26 | 6 | 27 | 1023 | 10 | N 11.1 | |
| Ieri h: 16:00 | Sereno | 28 | 6 | 24 | 1023 | 10 | N 14.8 | |
| Ieri h: 15:00 | Sereno | 28 | 6 | 24 | 1023 | 0 | N/NE 13 | |
| Ieri h: 14:00 | Sereno | 29 | 1 | 16 | 1023 | 0 | E/NE 9.3 | |
| Ieri h: 13:00 | Sereno | 28 | 0 | 16 | 1024 | 0 | SE 9.3 | |
| Ieri h: 12:00 | Sereno | 28 | 1 | 17 | 1025 | 10 | S/SE 11.1 | |
| Ieri h: 11:00 | Sereno | 26 | 1 | 19 | 1026 | 10 | S/SE 13 | |
| Ieri h: 10:00 | Sereno | 26 | 0 | 18 | 1026 | 0 | S/SE 14.8 | |
| Ieri h: 09:00 | Sereno | 25 | -2 | 16 | 1026 | 10 | S 11.1 | |



